sensor_id;sensor_type;location;lat;lon;timestamp;pressure;altitude;pressure_sealevel;temperature;humidity
42169;BME280;27838;43.858;25.974;2023-02-15T00:02:00;102453.75;;;7.18;50.77
42169;BME280;27838;43.858;25.974;2023-02-15T00:04:26;102454.50;;;7.15;50.96
42169;BME280;27838;43.858;25.974;2023-02-15T00:07:12;102456.41;;;7.19;51.00
42169;BME280;27838;43.858;25.974;2023-02-15T00:09:38;102451.91;;;7.15;50.58
42169;BME280;27838;43.858;25.974;2023-02-15T00:12:05;102455.47;;;7.17;51.17
42169;BME280;27838;43.858;25.974;2023-02-15T00:14:31;102457.25;;;7.18;50.91
42169;BME280;27838;43.858;25.974;2023-02-15T00:16:58;102460.00;;;7.23;50.06
42169;BME280;27838;43.858;25.974;2023-02-15T00:19:25;102461.78;;;7.24;50.32
42169;BME280;27838;43.858;25.974;2023-02-15T00:21:51;102465.19;;;7.23;50.18
42169;BME280;27838;43.858;25.974;2023-02-15T00:24:19;102466.97;;;7.24;50.24
42169;BME280;27838;43.858;25.974;2023-02-15T00:26:46;102464.25;;;7.21;49.80
42169;BME280;27838;43.858;25.974;2023-02-15T00:29:14;102464.19;;;7.19;50.23
42169;BME280;27838;43.858;25.974;2023-02-15T00:31:42;102468.22;;;7.13;50.42
42169;BME280;27838;43.858;25.974;2023-02-15T00:34:20;102468.91;;;7.09;50.01
42169;BME280;27838;43.858;25.974;2023-02-15T00:36:47;102466.41;;;7.10;49.83
42169;BME280;27838;43.858;25.974;2023-02-15T00:39:15;102463.03;;;7.13;49.94
42169;BME280;27838;43.858;25.974;2023-02-15T00:41:42;102463.03;;;7.13;49.40
42169;BME280;27838;43.858;25.974;2023-02-15T00:44:09;102466.25;;;7.07;50.14
42169;BME280;27838;43.858;25.974;2023-02-15T00:46:36;102472.00;;;7.00;50.22
42169;BME280;27838;43.858;25.974;2023-02-15T00:49:03;102464.31;;;7.02;50.55
42169;BME280;27838;43.858;25.974;2023-02-15T00:51:31;102449.63;;;7.02;50.43
42169;BME280;27838;43.858;25.974;2023-02-15T00:53:57;102459.38;;;7.08;50.25
42169;BME280;27838;43.858;25.974;2023-02-15T00:56:24;102453.28;;;7.07;50.13
42169;BME280;27838;43.858;25.974;2023-02-15T00:58:50;102451.66;;;7.09;49.61
42169;BME280;27838;43.858;25.974;2023-02-15T01:01:19;102450.19;;;7.16;49.80
42169;BME280;27838;43.858;25.974;2023-02-15T01:03:46;102452.94;;;7.19;49.75
42169;BME280;27838;43.858;25.974;2023-02-15T01:06:15;102450.41;;;7.21;49.44
42169;BME280;27838;43.858;25.974;2023-02-15T01:08:42;102452.44;;;7.28;49.31
42169;BME280;27838;43.858;25.974;2023-02-15T01:11:11;102448.00;;;7.25;49.31
42169;BME280;27838;43.858;25.974;2023-02-15T01:13:38;102455.97;;;7.30;49.36
42169;BME280;27838;43.858;25.974;2023-02-15T01:16:05;102455.09;;;7.29;49.54
42169;BME280;27838;43.858;25.974;2023-02-15T01:18:33;102455.78;;;7.25;49.78
42169;BME280;27838;43.858;25.974;2023-02-15T01:21:00;102452.16;;;7.22;49.09
42169;BME280;27838;43.858;25.974;2023-02-15T01:23:26;102444.94;;;7.14;49.07
42169;BME280;27838;43.858;25.974;2023-02-15T01:25:53;102455.38;;;7.16;49.95
42169;BME280;27838;43.858;25.974;2023-02-15T01:28:19;102459.00;;;7.19;50.07
42169;BME280;27838;43.858;25.974;2023-02-15T01:30:46;102455.47;;;7.17;49.64
42169;BME280;27838;43.858;25.974;2023-02-15T01:33:12;102455.59;;;7.21;49.65
42169;BME280;27838;43.858;25.974;2023-02-15T01:35:43;102456.66;;;7.26;49.40
42169;BME280;27838;43.858;25.974;2023-02-15T01:38:10;102461.09;;;7.28;49.01
42169;BME280;27838;43.858;25.974;2023-02-15T01:40:37;102464.81;;;7.35;48.92
42169;BME280;27838;43.858;25.974;2023-02-15T01:43:11;102463.09;;;7.35;48.68
42169;BME280;27838;43.858;25.974;2023-02-15T01:45:39;102468.41;;;7.38;49.02
42169;BME280;27838;43.858;25.974;2023-02-15T01:48:24;102465.69;;;7.35;49.14
42169;BME280;27838;43.858;25.974;2023-02-15T01:50:58;102461.28;;;7.33;48.50
42169;BME280;27838;43.858;25.974;2023-02-15T01:55:57;102467.34;;;7.33;48.14
42169;BME280;27838;43.858;25.974;2023-02-15T01:58:25;102467.41;;;7.35;47.88
42169;BME280;27838;43.858;25.974;2023-02-15T02:00:54;102469.94;;;7.33;47.92
42169;BME280;27838;43.858;25.974;2023-02-15T02:04:03;102462.94;;;7.31;48.72
42169;BME280;27838;43.858;25.974;2023-02-15T02:06:33;102467.34;;;7.33;48.07
42169;BME280;27838;43.858;25.974;2023-02-15T02:09:01;102461.47;;;7.37;48.00
42169;BME280;27838;43.858;25.974;2023-02-15T02:11:28;102463.16;;;7.37;48.26
42169;BME280;27838;43.858;25.974;2023-02-15T02:13:55;102459.56;;;7.33;48.11
42169;BME280;27838;43.858;25.974;2023-02-15T02:16:31;102466.47;;;7.33;48.10
42169;BME280;27838;43.858;25.974;2023-02-15T02:33:23;102479.00;;;7.22;47.88
42169;BME280;27838;43.858;25.974;2023-02-15T02:36:13;102492.63;;;7.18;48.07
42169;BME280;27838;43.858;25.974;2023-02-15T02:39:08;102499.47;;;7.16;48.24
42169;BME280;27838;43.858;25.974;2023-02-15T02:42:10;102501.13;;;7.14;48.28
42169;BME280;27838;43.858;25.974;2023-02-15T02:44:44;102501.13;;;7.14;48.02
42169;BME280;27838;43.858;25.974;2023-02-15T02:47:29;102506.16;;;7.11;48.27
42169;BME280;27838;43.858;25.974;2023-02-15T02:50:03;102507.00;;;7.10;48.01
42169;BME280;27838;43.858;25.974;2023-02-15T02:52:48;102504.28;;;7.07;48.05
42169;BME280;27838;43.858;25.974;2023-02-15T02:58:13;102501.22;;;6.96;48.18
42169;BME280;27838;43.858;25.974;2023-02-15T03:03:24;102500.00;;;6.88;49.08
42169;BME280;27838;43.858;25.974;2023-02-15T03:05:55;102509.50;;;6.87;48.74
42169;BME280;27838;43.858;25.974;2023-02-15T03:08:26;102510.78;;;6.77;48.83
42169;BME280;27838;43.858;25.974;2023-02-15T03:10:57;102520.47;;;6.82;48.63
42169;BME280;27838;43.858;25.974;2023-02-15T03:13:24;102518.78;;;6.82;48.38
42169;BME280;27838;43.858;25.974;2023-02-15T03:15:52;102497.56;;;6.71;48.71
42169;BME280;27838;43.858;25.974;2023-02-15T03:18:41;102515.78;;;6.73;49.33
42169;BME280;27838;43.858;25.974;2023-02-15T03:21:10;102521.47;;;6.66;49.29
42169;BME280;27838;43.858;25.974;2023-02-15T03:23:50;102522.25;;;6.63;48.81
42169;BME280;27838;43.858;25.974;2023-02-15T03:26:20;102528.22;;;6.62;49.10
42169;BME280;27838;43.858;25.974;2023-02-15T03:28:49;102527.34;;;6.61;48.86
42169;BME280;27838;43.858;25.974;2023-02-15T03:31:18;102529.06;;;6.61;48.85
42169;BME280;27838;43.858;25.974;2023-02-15T03:33:53;102521.22;;;6.59;49.12
42169;BME280;27838;43.858;25.974;2023-02-15T03:36:44;102526.94;;;6.52;48.98
42169;BME280;27838;43.858;25.974;2023-02-15T03:45:05;102521.34;;;6.43;49.77
42169;BME280;27838;43.858;25.974;2023-02-15T03:47:38;102519.34;;;6.37;49.95
42169;BME280;27838;43.858;25.974;2023-02-15T03:50:12;102529.72;;;6.37;49.68
42169;BME280;27838;43.858;25.974;2023-02-15T03:52:55;102526.38;;;6.40;50.05
42169;BME280;27838;43.858;25.974;2023-02-15T03:55:23;102525.69;;;6.44;49.35
42169;BME280;27838;43.858;25.974;2023-02-15T03:57:50;102529.25;;;6.46;49.61
42169;BME280;27838;43.858;25.974;2023-02-15T04:00:37;102523.34;;;6.49;49.62
42169;BME280;27838;43.858;25.974;2023-02-15T04:03:36;102533.06;;;6.54;49.91
42169;BME280;27838;43.858;25.974;2023-02-15T04:06:05;102533.31;;;6.59;49.61
42169;BME280;27838;43.858;25.974;2023-02-15T04:08:32;102528.19;;;6.60;49.34
42169;BME280;27838;43.858;25.974;2023-02-15T04:11:12;102527.22;;;6.58;49.80
42169;BME280;27838;43.858;25.974;2023-02-15T04:13:39;102529.00;;;6.59;49.83
42169;BME280;27838;43.858;25.974;2023-02-15T04:16:06;102535.81;;;6.57;49.59
42169;BME280;27838;43.858;25.974;2023-02-15T04:18:40;102530.72;;;6.59;49.81
42169;BME280;27838;43.858;25.974;2023-02-15T04:21:26;102531.66;;;6.61;49.68
42169;BME280;27838;43.858;25.974;2023-02-15T04:24:11;102530.00;;;6.63;50.22
42169;BME280;27838;43.858;25.974;2023-02-15T04:26:55;102532.69;;;6.65;50.00
42169;BME280;27838;43.858;25.974;2023-02-15T04:29:23;102538.88;;;6.68;49.81
42169;BME280;27838;43.858;25.974;2023-02-15T04:31:51;102543.31;;;6.71;50.10
42169;BME280;27838;43.858;25.974;2023-02-15T04:34:18;102544.13;;;6.70;49.49
42169;BME280;27838;43.858;25.974;2023-02-15T04:36:45;102546.88;;;6.73;49.57
42169;BME280;27838;43.858;25.974;2023-02-15T04:39:13;102548.78;;;6.77;49.66
42169;BME280;27838;43.858;25.974;2023-02-15T04:41:40;102553.16;;;6.78;49.46
42169;BME280;27838;43.858;25.974;2023-02-15T04:44:07;102554.03;;;6.78;49.70
42169;BME280;27838;43.858;25.974;2023-02-15T04:46:34;102560.09;;;6.79;49.46
42169;BME280;27838;43.858;25.974;2023-02-15T04:49:00;102560.97;;;6.79;49.44
42169;BME280;27838;43.858;25.974;2023-02-15T04:51:28;102553.00;;;6.75;49.39
42169;BME280;27838;43.858;25.974;2023-02-15T04:53:54;102565.28;;;6.79;49.71
42169;BME280;27838;43.858;25.974;2023-02-15T04:56:22;102560.84;;;6.76;49.58
42169;BME280;27838;43.858;25.974;2023-02-15T04:58:48;102562.69;;;6.79;49.32
42169;BME280;27838;43.858;25.974;2023-02-15T05:01:15;102561.66;;;6.75;49.57
42169;BME280;27838;43.858;25.974;2023-02-15T05:03:41;102556.25;;;6.71;50.00
42169;BME280;27838;43.858;25.974;2023-02-15T05:06:08;102564.72;;;6.67;49.98
42169;BME280;27838;43.858;25.974;2023-02-15T05:08:34;102564.81;;;6.68;49.89
42169;BME280;27838;43.858;25.974;2023-02-15T05:11:01;102572.56;;;6.68;50.23
42169;BME280;27838;43.858;25.974;2023-02-15T05:13:28;102569.91;;;6.67;50.28
42169;BME280;27838;43.858;25.974;2023-02-15T05:15:55;102577.06;;;6.72;50.30
42169;BME280;27838;43.858;25.974;2023-02-15T05:18:21;102577.22;;;6.75;50.21
42169;BME280;27838;43.858;25.974;2023-02-15T05:20:48;102581.66;;;6.78;49.63
42169;BME280;27838;43.858;25.974;2023-02-15T05:23:15;102582.53;;;6.78;49.91
42169;BME280;27838;43.858;25.974;2023-02-15T05:25:47;102584.38;;;6.81;50.09
42169;BME280;27838;43.858;25.974;2023-02-15T05:28:31;102585.28;;;6.82;49.99
42169;BME280;27838;43.858;25.974;2023-02-15T05:31:18;102589.63;;;6.83;49.35
42169;BME280;27838;43.858;25.974;2023-02-15T05:33:45;102598.88;;;6.95;49.74
42169;BME280;27838;43.858;25.974;2023-02-15T05:36:12;102594.97;;;7.46;48.56
42169;BME280;27838;43.858;25.974;2023-02-15T05:38:39;102593.09;;;8.05;46.94
42169;BME280;27838;43.858;25.974;2023-02-15T05:41:06;102594.66;;;8.22;46.53
42169;BME280;27838;43.858;25.974;2023-02-15T05:43:33;102598.72;;;8.16;46.42
42169;BME280;27838;43.858;25.974;2023-02-15T05:46:00;102596.16;;;7.94;46.94
42169;BME280;27838;43.858;25.974;2023-02-15T05:48:27;102605.53;;;7.91;47.32
42169;BME280;27838;43.858;25.974;2023-02-15T05:51:10;102611.66;;;7.93;47.36
42169;BME280;27838;43.858;25.974;2023-02-15T05:53:39;102609.00;;;8.12;47.08
42169;BME280;27838;43.858;25.974;2023-02-15T05:56:11;102615.56;;;8.46;46.31
42169;BME280;27838;43.858;25.974;2023-02-15T05:58:40;102627.16;;;8.77;44.95
42169;BME280;27838;43.858;25.974;2023-02-15T06:01:17;102628.75;;;8.98;44.53
42169;BME280;27838;43.858;25.974;2023-02-15T06:03:46;102631.94;;;9.13;44.32
42169;BME280;27838;43.858;25.974;2023-02-15T06:06:13;102631.38;;;9.22;44.29
42169;BME280;27838;43.858;25.974;2023-02-15T06:08:40;102621.84;;;9.22;43.90
42169;BME280;27838;43.858;25.974;2023-02-15T06:11:07;102615.00;;;9.24;43.68
42169;BME280;27838;43.858;25.974;2023-02-15T06:13:34;102623.75;;;9.26;44.03
42169;BME280;27838;43.858;25.974;2023-02-15T06:16:01;102628.84;;;9.23;43.77
42169;BME280;27838;43.858;25.974;2023-02-15T06:18:27;102635.66;;;9.20;43.90
42169;BME280;27838;43.858;25.974;2023-02-15T06:20:54;102638.91;;;9.14;43.49
42169;BME280;27838;43.858;25.974;2023-02-15T06:23:20;102642.00;;;9.04;44.32
42169;BME280;27838;43.858;25.974;2023-02-15T06:25:47;102640.09;;;9.00;44.58
42169;BME280;27838;43.858;25.974;2023-02-15T06:28:13;102640.69;;;8.93;44.20
42169;BME280;27838;43.858;25.974;2023-02-15T06:30:40;102645.50;;;8.82;44.70
42169;BME280;27838;43.858;25.974;2023-02-15T06:33:07;102646.75;;;8.69;44.62
42169;BME280;27838;43.858;25.974;2023-02-15T06:35:33;102645.50;;;8.59;45.81
42169;BME280;27838;43.858;25.974;2023-02-15T06:38:00;102654.75;;;8.51;45.75
42169;BME280;27838;43.858;25.974;2023-02-15T06:40:26;102656.19;;;8.44;45.54
42169;BME280;27838;43.858;25.974;2023-02-15T06:42:53;102655.25;;;8.42;45.75
42169;BME280;27838;43.858;25.974;2023-02-15T06:45:19;102650.78;;;8.40;46.43
42169;BME280;27838;43.858;25.974;2023-02-15T06:47:46;102645.59;;;8.40;45.78
42169;BME280;27838;43.858;25.974;2023-02-15T06:50:12;102648.97;;;8.37;46.07
42169;BME280;27838;43.858;25.974;2023-02-15T06:52:39;102642.56;;;8.29;45.26
42169;BME280;27838;43.858;25.974;2023-02-15T06:55:06;102639.75;;;8.24;46.27
42169;BME280;27838;43.858;25.974;2023-02-15T06:57:32;102638.53;;;8.15;46.16
42169;BME280;27838;43.858;25.974;2023-02-15T06:59:59;102641.81;;;8.10;46.48
42169;BME280;27838;43.858;25.974;2023-02-15T07:02:26;102640.69;;;8.04;46.25
42169;BME280;27838;43.858;25.974;2023-02-15T07:04:53;102635.09;;;7.94;46.53
42169;BME280;27838;43.858;25.974;2023-02-15T07:07:20;102636.38;;;7.83;47.76
42169;BME280;27838;43.858;25.974;2023-02-15T07:09:46;102637.25;;;7.84;47.21
42169;BME280;27838;43.858;25.974;2023-02-15T07:12:13;102646.06;;;7.87;46.48
42169;BME280;27838;43.858;25.974;2023-02-15T07:14:57;102645.19;;;7.87;47.17
42169;BME280;27838;43.858;25.974;2023-02-15T07:17:24;102645.09;;;7.85;47.87
42169;BME280;27838;43.858;25.974;2023-02-15T07:19:54;102643.53;;;7.89;47.35
42169;BME280;27838;43.858;25.974;2023-02-15T07:22:20;102645.09;;;7.85;47.39
42169;BME280;27838;43.858;25.974;2023-02-15T07:24:47;102638.47;;;7.92;47.56
42169;BME280;27838;43.858;25.974;2023-02-15T07:27:14;102631.81;;;7.99;46.99
42169;BME280;27838;43.858;25.974;2023-02-15T07:29:41;102641.69;;;8.07;46.87
42169;BME280;27838;43.858;25.974;2023-02-15T07:32:07;102630.34;;;8.05;46.49
42169;BME280;27838;43.858;25.974;2023-02-15T07:34:34;102635.50;;;8.04;46.58
42169;BME280;27838;43.858;25.974;2023-02-15T07:37:00;102630.47;;;8.08;47.38
42169;BME280;27838;43.858;25.974;2023-02-15T07:39:27;102629.97;;;8.17;46.97
42169;BME280;27838;43.858;25.974;2023-02-15T07:41:53;102632.03;;;8.26;47.10
42169;BME280;27838;43.858;25.974;2023-02-15T07:44:20;102622.59;;;8.28;46.83
42169;BME280;27838;43.858;25.974;2023-02-15T07:46:46;102633.53;;;8.42;46.39
42169;BME280;27838;43.858;25.974;2023-02-15T07:49:13;102634.88;;;8.53;46.21
42169;BME280;27838;43.858;25.974;2023-02-15T07:51:39;102632.63;;;8.62;45.88
42169;BME280;27838;43.858;25.974;2023-02-15T07:54:06;102638.91;;;8.67;45.89
42169;BME280;27838;43.858;25.974;2023-02-15T07:56:33;102635.28;;;8.64;45.77
42169;BME280;27838;43.858;25.974;2023-02-15T07:59:00;102629.22;;;8.63;46.38
42169;BME280;27838;43.858;25.974;2023-02-15T08:01:33;102632.69;;;8.64;46.53
42169;BME280;27838;43.858;25.974;2023-02-15T08:04:00;102637.09;;;8.65;46.08
42169;BME280;27838;43.858;25.974;2023-02-15T08:06:29;102635.69;;;8.75;46.00
42169;BME280;27838;43.858;25.974;2023-02-15T08:08:56;102630.03;;;8.85;45.59
42169;BME280;27838;43.858;25.974;2023-02-15T08:11:25;102632.25;;;8.98;45.88
42169;BME280;27838;43.858;25.974;2023-02-15T08:16:39;102628.84;;;9.23;45.56
42169;BME280;27838;43.858;25.974;2023-02-15T08:19:32;102625.50;;;9.27;45.39
42169;BME280;27838;43.858;25.974;2023-02-15T08:22:05;102618.13;;;9.40;44.97
42169;BME280;27838;43.858;25.974;2023-02-15T08:24:34;102622.56;;;9.42;45.04
42169;BME280;27838;43.858;25.974;2023-02-15T08:27:03;102628.81;;;9.48;45.52
42169;BME280;27838;43.858;25.974;2023-02-15T08:29:30;102629.81;;;9.51;45.51
42169;BME280;27838;43.858;25.974;2023-02-15T08:32:03;102628.13;;;9.53;45.36
42169;BME280;27838;43.858;25.974;2023-02-15T08:34:32;102635.81;;;9.74;45.11
42169;BME280;27838;43.858;25.974;2023-02-15T08:36:59;102619.13;;;9.69;45.13
42169;BME280;27838;43.858;25.974;2023-02-15T08:39:25;102622.03;;;9.78;45.23
42169;BME280;27838;43.858;25.974;2023-02-15T08:41:52;102623.66;;;9.75;44.96
42169;BME280;27838;43.858;25.974;2023-02-15T08:44:19;102626.66;;;9.87;45.17
42169;BME280;27838;43.858;25.974;2023-02-15T08:46:48;102627.34;;;10.07;45.03
42169;BME280;27838;43.858;25.974;2023-02-15T08:49:17;102626.88;;;10.19;44.24
42169;BME280;27838;43.858;25.974;2023-02-15T08:51:45;102630.13;;;10.12;44.54
42169;BME280;27838;43.858;25.974;2023-02-15T08:54:13;102630.13;;;10.12;44.90
42169;BME280;27838;43.858;25.974;2023-02-15T08:56:42;102626.75;;;10.16;44.77
42169;BME280;27838;43.858;25.974;2023-02-15T08:59:15;102631.16;;;10.18;44.86
42169;BME280;27838;43.858;25.974;2023-02-15T09:01:42;102645.81;;;10.15;44.87
42169;BME280;27838;43.858;25.974;2023-02-15T09:04:09;102637.28;;;10.19;44.69
42169;BME280;27838;43.858;25.974;2023-02-15T09:06:37;102628.53;;;10.17;45.27
42169;BME280;27838;43.858;25.974;2023-02-15T09:09:04;102625.28;;;10.24;45.38
42169;BME280;27838;43.858;25.974;2023-02-15T09:11:34;102623.00;;;10.33;44.63
42169;BME280;27838;43.858;25.974;2023-02-15T09:14:09;102611.91;;;10.41;44.46
42169;BME280;27838;43.858;25.974;2023-02-15T09:16:37;102620.34;;;10.61;43.97
42169;BME280;27838;43.858;25.974;2023-02-15T09:19:04;102620.94;;;10.81;44.28
42169;BME280;27838;43.858;25.974;2023-02-15T09:21:35;102614.44;;;10.96;43.61
42169;BME280;27838;43.858;25.974;2023-02-15T09:24:05;102623.09;;;10.94;42.99
42169;BME280;27838;43.858;25.974;2023-02-15T09:26:35;102617.72;;;10.89;43.31
42169;BME280;27838;43.858;25.974;2023-02-15T09:29:03;102610.72;;;10.88;43.07
42169;BME280;27838;43.858;25.974;2023-02-15T09:31:36;102620.47;;;10.94;43.62
42169;BME280;27838;43.858;25.974;2023-02-15T09:34:03;102619.88;;;11.04;43.21
42169;BME280;27838;43.858;25.974;2023-02-15T09:36:33;102620.41;;;11.23;42.77
42169;BME280;27838;43.858;25.974;2023-02-15T09:39:18;102619.91;;;11.36;42.13
42169;BME280;27838;43.858;25.974;2023-02-15T09:41:59;102610.19;;;11.65;41.97
42169;BME280;27838;43.858;25.974;2023-02-15T09:56:19;102604.56;;;12.18;39.73
42169;BME280;27838;43.858;25.974;2023-02-15T09:59:08;102593.66;;;12.36;39.63
42169;BME280;27838;43.858;25.974;2023-02-15T10:16:16;102582.13;;;12.68;38.71
42169;BME280;27838;43.858;25.974;2023-02-15T10:26:22;102567.38;;;13.17;37.64
42169;BME280;27838;43.858;25.974;2023-02-15T10:29:03;102567.63;;;13.31;37.56
42169;BME280;27838;43.858;25.974;2023-02-15T10:34:21;102560.00;;;13.41;37.41
42169;BME280;27838;43.858;25.974;2023-02-15T10:43:03;102547.97;;;13.53;37.04
42169;BME280;27838;43.858;25.974;2023-02-15T10:50:47;102552.88;;;13.86;36.28
42169;BME280;27838;43.858;25.974;2023-02-15T10:53:54;102544.31;;;13.96;36.47
42169;BME280;27838;43.858;25.974;2023-02-15T11:02:59;102546.19;;;14.08;36.90
42169;BME280;27838;43.858;25.974;2023-02-15T11:08:23;102537.53;;;14.12;36.57
42169;BME280;27838;43.858;25.974;2023-02-15T11:10:56;102536.75;;;14.20;36.84
42169;BME280;27838;43.858;25.974;2023-02-15T11:13:29;102538.72;;;14.33;35.67
42169;BME280;27838;43.858;25.974;2023-02-15T11:16:12;102537.03;;;14.38;36.00
42169;BME280;27838;43.858;25.974;2023-02-15T11:21:21;102520.44;;;14.41;35.81
42169;BME280;27838;43.858;25.974;2023-02-15T11:23:49;102518.47;;;14.26;35.65
42169;BME280;27838;43.858;25.974;2023-02-15T11:26:36;102513.13;;;14.18;36.03
42169;BME280;27838;43.858;25.974;2023-02-15T11:31:43;102510.59;;;14.23;35.85
42169;BME280;27838;43.858;25.974;2023-02-15T11:34:22;102506.31;;;14.29;35.71
42169;BME280;27838;43.858;25.974;2023-02-15T11:36:54;102513.41;;;14.38;35.39
42169;BME280;27838;43.858;25.974;2023-02-15T11:39:23;102504.41;;;14.19;35.74
42169;BME280;27838;43.858;25.974;2023-02-15T11:41:59;102498.22;;;14.12;36.15
42169;BME280;27838;43.858;25.974;2023-02-15T11:45:19;102498.16;;;14.09;36.29
42169;BME280;27838;43.858;25.974;2023-02-15T11:47:20;102496.47;;;14.14;36.20
42169;BME280;27838;43.858;25.974;2023-02-15T11:49:46;102494.91;;;14.29;35.81
42169;BME280;27838;43.858;25.974;2023-02-15T11:52:14;102491.44;;;14.30;34.81
42169;BME280;27838;43.858;25.974;2023-02-15T11:54:45;102488.03;;;14.37;35.22
42169;BME280;27838;43.858;25.974;2023-02-15T11:57:19;102481.94;;;14.38;35.20
42169;BME280;27838;43.858;25.974;2023-02-15T11:59:51;102489.00;;;14.44;34.89
42169;BME280;27838;43.858;25.974;2023-02-15T12:02:21;102463.56;;;14.40;35.19
42169;BME280;27838;43.858;25.974;2023-02-15T12:04:59;102479.47;;;14.50;34.54
42169;BME280;27838;43.858;25.974;2023-02-15T12:07:35;102476.56;;;14.30;34.65
42169;BME280;27838;43.858;25.974;2023-02-15T12:13:23;102470.13;;;14.04;34.98
42169;BME280;27838;43.858;25.974;2023-02-15T12:15:53;102469.19;;;14.00;35.04
42169;BME280;27838;43.858;25.974;2023-02-15T12:18:40;102470.03;;;13.99;34.12
42169;BME280;27838;43.858;25.974;2023-02-15T12:21:15;102463.09;;;14.01;33.88
42169;BME280;27838;43.858;25.974;2023-02-15T12:23:49;102458.63;;;13.95;33.87
42169;BME280;27838;43.858;25.974;2023-02-15T12:26:36;102456.78;;;13.87;34.79
42169;BME280;27838;43.858;25.974;2023-02-15T12:29:21;102453.25;;;13.85;34.28
42169;BME280;27838;43.858;25.974;2023-02-15T12:31:51;102452.41;;;13.87;34.37
42169;BME280;27838;43.858;25.974;2023-02-15T12:36:52;102461.16;;;13.86;33.59
42169;BME280;27838;43.858;25.974;2023-02-15T12:39:25;102459.50;;;13.96;33.49
42169;BME280;27838;43.858;25.974;2023-02-15T12:44:23;102452.59;;;14.01;33.40
42169;BME280;27838;43.858;25.974;2023-02-15T12:47:10;102456.00;;;13.94;34.07
42169;BME280;27838;43.858;25.974;2023-02-15T12:49:44;102454.28;;;13.96;33.77
42169;BME280;27838;43.858;25.974;2023-02-15T12:52:29;102450.66;;;13.86;33.75
42169;BME280;27838;43.858;25.974;2023-02-15T12:55:31;102452.44;;;13.90;34.07
42169;BME280;27838;43.858;25.974;2023-02-15T12:58:19;102444.63;;;13.93;33.74
42169;BME280;27838;43.858;25.974;2023-02-15T13:00:47;102449.03;;;13.96;33.94
42169;BME280;27838;43.858;25.974;2023-02-15T13:03:19;102446.41;;;13.94;33.27
42169;BME280;27838;43.858;25.974;2023-02-15T13:05:55;102448.16;;;13.95;33.27
42169;BME280;27838;43.858;25.974;2023-02-15T13:08:31;102447.34;;;14.01;33.47
42169;BME280;27838;43.858;25.974;2023-02-15T13:13:33;102437.91;;;14.12;33.64
42169;BME280;27838;43.858;25.974;2023-02-15T13:16:12;102432.56;;;14.06;33.68
42169;BME280;27838;43.858;25.974;2023-02-15T13:18:44;102435.28;;;14.12;33.34
42169;BME280;27838;43.858;25.974;2023-02-15T13:21:12;102430.94;;;14.14;33.69
42169;BME280;27838;43.858;25.974;2023-02-15T13:23:45;102425.56;;;14.05;33.33
42169;BME280;27838;43.858;25.974;2023-02-15T13:26:16;102424.69;;;14.06;33.60
42169;BME280;27838;43.858;25.974;2023-02-15T13:28:50;102423.00;;;14.11;33.77
42169;BME280;27838;43.858;25.974;2023-02-15T13:31:23;102418.69;;;14.15;33.29
42169;BME280;27838;43.858;25.974;2023-02-15T13:33:54;102420.53;;;14.24;33.91
42169;BME280;27838;43.858;25.974;2023-02-15T13:36:30;102423.22;;;14.28;33.50
42169;BME280;27838;43.858;25.974;2023-02-15T13:42:35;102415.97;;;14.06;34.23
42169;BME280;27838;43.858;25.974;2023-02-15T13:50:36;102424.78;;;14.12;33.34
42169;BME280;27838;43.858;25.974;2023-02-15T13:55:44;102419.94;;;13.76;34.33
42169;BME280;27838;43.858;25.974;2023-02-15T13:58:26;102427.03;;;13.83;34.44
42169;BME280;27838;43.858;25.974;2023-02-15T14:01:08;102421.84;;;13.88;34.52
42169;BME280;27838;43.858;25.974;2023-02-15T14:12:32;102423.38;;;13.72;34.70
42169;BME280;27838;43.858;25.974;2023-02-15T14:28:05;102427.34;;;13.45;34.93
42169;BME280;27838;43.858;25.974;2023-02-15T14:30:41;102420.34;;;13.43;34.70
42169;BME280;27838;43.858;25.974;2023-02-15T14:35:42;102416.75;;;13.37;34.89
42169;BME280;27838;43.858;25.974;2023-02-15T14:41:00;102420.28;;;13.39;34.97
42169;BME280;27838;43.858;25.974;2023-02-15T14:46:34;102413.59;;;13.60;34.64
42169;BME280;27838;43.858;25.974;2023-02-15T14:49:24;102417.22;;;13.68;34.19
42169;BME280;27838;43.858;25.974;2023-02-15T15:02:18;102420.47;;;13.52;34.05
42169;BME280;27838;43.858;25.974;2023-02-15T15:07:36;102420.28;;;13.39;34.52
42169;BME280;27838;43.858;25.974;2023-02-15T15:10:35;102419.38;;;13.37;34.51
42169;BME280;27838;43.858;25.974;2023-02-15T15:16:46;102414.72;;;13.22;34.75
42169;BME280;27838;43.858;25.974;2023-02-15T15:22:20;102412.97;;;13.20;35.14
42169;BME280;27838;43.858;25.974;2023-02-15T15:24:57;102419.22;;;13.28;35.13
42169;BME280;27838;43.858;25.974;2023-02-15T15:27:46;102418.44;;;13.34;35.09
42169;BME280;27838;43.858;25.974;2023-02-15T15:38:29;102417.59;;;13.36;35.09
42169;BME280;27838;43.858;25.974;2023-02-15T15:41:42;102425.34;;;13.30;34.71
42169;BME280;27838;43.858;25.974;2023-02-15T15:49:42;102426.22;;;13.31;35.03
42169;BME280;27838;43.858;25.974;2023-02-15T15:52:17;102424.50;;;13.31;35.04
42169;BME280;27838;43.858;25.974;2023-02-15T15:54:46;102430.50;;;13.26;35.29
42169;BME280;27838;43.858;25.974;2023-02-15T15:57:35;102434.00;;;13.26;35.31
42169;BME280;27838;43.858;25.974;2023-02-15T16:03:20;102440.88;;;13.18;35.36
42169;BME280;27838;43.858;25.974;2023-02-15T16:05:48;102439.97;;;13.16;35.63
42169;BME280;27838;43.858;25.974;2023-02-15T16:08:30;102439.03;;;13.14;35.50
42169;BME280;27838;43.858;25.974;2023-02-15T16:10:57;102438.16;;;13.13;35.30
42169;BME280;27838;43.858;25.974;2023-02-15T16:13:25;102445.19;;;13.17;35.88